createdAt,value
2024-02-10T00:14:26.872Z,713.78125
2024-02-10T00:29:28.931Z,418.09879
2024-02-10T00:44:30.941Z,203.39941
2024-02-10T00:59:32.958Z,70.62479
2024-02-10T01:14:35.088Z,8.47498
2024-02-10T01:29:37.070Z,0.94166
2024-02-10T01:44:39.123Z,0
2024-02-10T01:59:41.223Z,0
2024-02-10T02:14:43.223Z,0
2024-02-10T02:29:45.293Z,0
2024-02-10T02:44:47.394Z,0
2024-02-10T02:59:49.501Z,0
2024-02-10T03:14:51.677Z,0
2024-02-10T03:29:53.937Z,0
2024-02-10T03:44:56.615Z,0
2024-02-10T03:59:58.668Z,0
2024-02-10T04:15:00.742Z,0
2024-02-10T04:30:02.815Z,0
2024-02-10T04:45:04.867Z,0
2024-02-10T05:00:06.890Z,0
2024-02-10T05:15:08.876Z,0
2024-02-10T05:30:11.521Z,0
2024-02-10T05:45:13.728Z,0
2024-02-10T06:00:15.745Z,0
2024-02-10T06:15:18.038Z,0
2024-02-10T06:30:20.290Z,0
2024-02-10T06:45:22.450Z,0
2024-02-10T07:00:24.618Z,0
2024-02-10T07:15:26.916Z,0
2024-02-10T07:30:29.158Z,0
2024-02-10T07:45:32.510Z,0
2024-02-10T08:00:34.694Z,0
2024-02-10T08:15:36.747Z,0
2024-02-10T08:30:38.602Z,0
2024-02-10T08:45:40.690Z,0
2024-02-10T09:00:42.800Z,0
2024-02-10T09:15:44.791Z,0
2024-02-10T09:30:46.852Z,0
2024-02-10T09:45:48.861Z,0
2024-02-10T10:00:51.168Z,0
2024-02-10T10:15:53.348Z,0
2024-02-10T10:30:55.415Z,0
2024-02-10T10:45:57.593Z,0
2024-02-10T11:00:59.717Z,0
2024-02-10T11:16:01.959Z,0
2024-02-10T11:31:03.997Z,0
2024-02-10T11:46:05.988Z,0
2024-02-10T12:01:08.186Z,0
2024-02-10T12:16:10.373Z,0
2024-02-10T12:31:12.443Z,0
2024-02-10T12:46:14.658Z,0
2024-02-10T13:01:16.834Z,0
2024-02-10T13:16:19.140Z,0
2024-02-10T13:31:21.653Z,0
2024-02-10T13:46:24.046Z,0
2024-02-10T14:01:26.338Z,0
2024-02-10T14:16:29.256Z,0
2024-02-10T14:31:32.041Z,0
2024-02-10T14:46:34.174Z,6.59165
2024-02-10T15:01:36.590Z,68.74146
2024-02-10T15:16:38.805Z,258.95758
2024-02-10T15:31:41.079Z,552.75671
2024-02-10T15:46:43.550Z,1405.90417
2024-02-10T16:01:45.858Z,6561.51416
2024-02-10T16:16:48.061Z,1559.39551
2024-02-10T16:31:50.250Z,1753.37817
2024-02-10T16:46:52.297Z,4010.54663
2024-02-10T17:01:54.520Z,3347.61523
2024-02-10T17:16:56.606Z,5653.75
2024-02-10T17:31:58.801Z,3566.0813
2024-02-10T17:47:00.906Z,3790.19727
2024-02-10T18:02:03.039Z,3632.93945
2024-02-10T18:17:05.217Z,3044.39941
2024-02-10T18:32:07.350Z,3018.03296
2024-02-10T18:47:09.494Z,3064.17432
2024-02-10T19:02:11.718Z,3111.25757
2024-02-10T19:17:13.780Z,2505.76758
2024-02-10T19:32:15.979Z,4773.29443
2024-02-10T19:47:18.159Z,5662.2251
2024-02-10T20:02:20.650Z,4516.22021
2024-02-10T20:17:22.852Z,3826.92212
2024-02-10T20:32:25.089Z,5075.56836
2024-02-10T20:47:27.362Z,5148.07666
2024-02-10T21:02:29.360Z,6105.74902
2024-02-10T21:17:32.726Z,6807.28857
2024-02-10T21:32:34.828Z,6110.45703
2024-02-10T21:47:36.925Z,3841.98877
2024-02-10T22:02:38.960Z,2566.97583
2024-02-10T22:17:41.050Z,2519.89258
2024-02-10T22:32:43.141Z,1977.49426
2024-02-10T22:47:45.511Z,2200.6687
2024-02-10T23:02:47.699Z,2282.59326
2024-02-10T23:17:50.177Z,1434.15417
2024-02-10T23:32:52.409Z,947.3139
2024-02-10T23:47:54.678Z,752.38947
